This is the latest recevied weather packets stored in our database for station/object YN9ZMM-13. If no packets are shown the sender has not sent any weather packets the latest 10 day(s).
| Time | Temp. | Humidity | Pressure | Rain* | Wind** | Luminosity | Snow |
|---|---|---|---|---|---|---|---|
| 1778115272 | 23.33° C | 63% | 1012 hPa | 0 mm | - | - | - |
| 1778114671 | 22.78° C | 63% | 1012 hPa | 0 mm | - | - | - |
| 1778114071 | 25.56° C | 56% | 1011 hPa | 0 mm | - | - | - |
| 1778113470 | 25° C | 56% | 1011 hPa | 0 mm | - | - | - |
| 1778112870 | 24.44° C | 56% | 1011 hPa | 0 mm | - | - | - |
| 1778112270 | 27.22° C | 57% | 1011 hPa | 0 mm | - | - | - |
| 1778111669 | 26.67° C | 57% | 1011 hPa | 0 mm | - | - | - |
| 1778111069 | 26.11° C | 57% | 1011 hPa | 0 mm | - | - | - |
| 1778110468 | 28.33° C | 53% | 1011 hPa | 0 mm | - | - | - |
| 1778109868 | 27.78° C | 53% | 1010 hPa | 0 mm | - | - | - |
| 1778109268 | 27.22° C | 53% | 1010 hPa | 0 mm | - | - | - |
| 1778108668 | 28.89° C | 53% | 1010 hPa | 0 mm | - | - | - |
| 1778108067 | 28.33° C | 53% | 1010 hPa | 0 mm | - | - | - |
| 1778107467 | 28.89° C | 51% | 1010 hPa | 0 mm | - | - | - |
| 1778106867 | 28.89° C | 51% | 1010 hPa | 0 mm | - | - | - |
| 1778106266 | 28.33° C | 51% | 1010 hPa | 0 mm | - | - | - |
| 1778105666 | 28.33° C | 51% | 1010 hPa | 0 mm | - | - | - |
| 1778105065 | 27.78° C | 51% | 1010 hPa | 0 mm | - | - | - |
| 1778104465 | 27.22° C | 51% | 1010 hPa | 0 mm | - | - | - |
| 1778103864 | 26.67° C | 51% | 1010 hPa | 0 mm | - | - | - |
| 1778103264 | 30.56° C | 43% | 1010 hPa | 0 mm | - | - | - |
| 1778102664 | 30° C | 43% | 1010 hPa | 0 mm | - | - | - |
| 1778102063 | 29.44° C | 43% | 1010 hPa | 0 mm | - | - | - |
| 1778101463 | 28.89° C | 43% | 1010 hPa | 0 mm | - | - | - |
| 1778100863 | 30.56° C | 44% | 1010 hPa | 0 mm | - | - | - |
* Rain latest hour (hover to see other rain measurements)
** Current wind speed in m/s (hover to see current wind gust speed)